Robertsport/Cape Mount Airport

Jump to: basic info | weather | comments

Related pages: nearby airports | nearby navaids | notams | map

Basic information (top)

Codes: GLCM
Location: lon 6.800000, lat -11.367000, elev 10 ft / 3 m msl
Status: small_airport

Weather (top)

Current conditions for Roberts International Airport 69nm (128km) ESE (rec'd 2014/10/25 17:30Z):

GLRB 251730Z 20009KT 9999 BKN017 FEW025 CB 28/25 Q1009 RMK CB-NE/E

Airport forecast for Roberts International Airport 69nm (128km) ESE (rec'd 2014/10/25 18:54Z):

TAF TAF GLRB 251600Z 2518/2624 26012KT 9999 BKN016 FEW025CB 
      TEMPO 2520/2601 02004KT 9999 
      BECMG 2602/2604 VRB03KT 9000 SCT012 FEW022CB FM 260700 08008KT 9999 BKN014

Latest comments (top)

No comments yet for Robertsport/Cape Mount Airport

More... (top)

See also NOTAMs and nearby airports and navaids, or visit the Robertsport/Cape Mount Airport page at the main OurAirports website..